createdAt,value
2019-03-13T00:02:30.720Z,100477.61
2019-03-13T00:04:58.787Z,100468.92
2019-03-13T00:07:26.641Z,100464.98
2019-03-13T00:09:54.749Z,100478.11
2019-03-13T00:12:22.737Z,100474.03
2019-03-13T00:14:50.591Z,100484.44
2019-03-13T00:17:18.458Z,100478.73
2019-03-13T00:19:46.459Z,100470.66
2019-03-13T00:22:14.539Z,100466.09
2019-03-13T00:24:42.647Z,100478.95
2019-03-13T00:27:10.857Z,100470.66
2019-03-13T00:29:40.190Z,100473.53
2019-03-13T00:32:11.133Z,100457.31
2019-03-13T00:34:39.279Z,100450.37
2019-03-13T00:37:07.108Z,100439.59
2019-03-13T00:39:35.128Z,100447.61
2019-03-13T00:42:02.938Z,100453.40
2019-03-13T00:44:30.769Z,100451.17
2019-03-13T00:46:58.755Z,100455.03
2019-03-13T00:49:26.614Z,100450.75
2019-03-13T00:51:57.285Z,100424.36
2019-03-13T00:54:25.336Z,100440.95
2019-03-13T00:56:53.188Z,100439.98
2019-03-13T00:59:21.296Z,100427.64
2019-03-13T01:02:07.864Z,100437.44
2019-03-13T01:04:40.393Z,100444.64
2019-03-13T01:07:09.927Z,100437.15
2019-03-13T01:09:41.257Z,100427.75
2019-03-13T01:12:10.324Z,100437.78
2019-03-13T01:14:38.278Z,100427.24
2019-03-13T01:17:07.376Z,100429.73
2019-03-13T01:19:35.347Z,100429.95
2019-03-13T01:22:03.319Z,100422.46
2019-03-13T01:24:31.139Z,100412.65
2019-03-13T01:26:59.120Z,100421.94
2019-03-13T01:29:26.952Z,100430.59
2019-03-13T01:32:14.552Z,100429.52
2019-03-13T01:34:51.810Z,100429.11
2019-03-13T01:37:19.775Z,100403.36
2019-03-13T01:39:47.635Z,100424.94
2019-03-13T01:42:15.667Z,100417.23
2019-03-13T01:44:43.482Z,100419.08
2019-03-13T01:47:11.402Z,100415.02
2019-03-13T01:49:39.381Z,100407.24
2019-03-13T01:52:07.207Z,100417.06
2019-03-13T01:54:35.070Z,100410.52
2019-03-13T01:57:03.293Z,100401.03
2019-03-13T01:59:32.292Z,100397.05
2019-03-13T02:02:00.131Z,100395.11
2019-03-13T02:04:27.952Z,100395.08
2019-03-13T02:06:55.950Z,100389.14
2019-03-13T02:09:24.174Z,100388.73
2019-03-13T02:11:52.685Z,100386.40
2019-03-13T02:14:22.611Z,100381.73
2019-03-13T02:16:50.562Z,100386.05
2019-03-13T02:19:18.454Z,100395.35
2019-03-13T02:21:46.347Z,100386.84
2019-03-13T02:24:14.299Z,100385.54
2019-03-13T02:26:42.273Z,100385.69
2019-03-13T02:29:10.988Z,100387.05
2019-03-13T02:31:38.848Z,100389.98
2019-03-13T02:34:06.818Z,100388.07
2019-03-13T02:36:36.349Z,100390.94
2019-03-13T02:39:05.581Z,100388.69
2019-03-13T02:41:33.875Z,100372.53
2019-03-13T02:44:01.924Z,100374.23
2019-03-13T02:46:29.814Z,100365.56
2019-03-13T02:48:58.928Z,100376.27
2019-03-13T02:51:26.889Z,100379.67
2019-03-13T02:53:54.754Z,100376.61
2019-03-13T02:56:22.737Z,100372.72
2019-03-13T02:58:50.601Z,100385.97
2019-03-13T03:01:47.148Z,100383.50
2019-03-13T03:04:17.653Z,100382.63
2019-03-13T03:06:45.644Z,100380.65
2019-03-13T03:09:13.506Z,100369.18
2019-03-13T03:11:41.730Z,100370.88
2019-03-13T03:14:10.290Z,100355.52
2019-03-13T03:16:40.567Z,100355.10
2019-03-13T03:19:08.570Z,100354.64
2019-03-13T03:21:36.916Z,100345.16
2019-03-13T03:24:07.215Z,100355.50
2019-03-13T03:26:35.037Z,100339.98
2019-03-13T03:29:03.655Z,100354.42
2019-03-13T03:31:32.146Z,100365.97
2019-03-13T03:34:02.864Z,100347.51
2019-03-13T03:36:31.317Z,100344.52
2019-03-13T03:38:59.728Z,100346.75
2019-03-13T03:41:28.015Z,100324.94
2019-03-13T03:43:56.316Z,100336.19
2019-03-13T03:46:24.191Z,100340.62
2019-03-13T03:48:53.988Z,100339.89
2019-03-13T03:51:22.121Z,100343.05
2019-03-13T03:53:50.133Z,100339.05
2019-03-13T03:56:19.470Z,100344.81
2019-03-13T03:58:47.712Z,100342.37
2019-03-13T04:01:16.578Z,100349.20
2019-03-13T04:03:44.529Z,100332.30
2019-03-13T04:06:13.073Z,100337.05
2019-03-13T04:08:41.178Z,100324.89
2019-03-13T04:11:09.358Z,100328.48
2019-03-13T04:13:38.557Z,100330.95
2019-03-13T04:16:08.479Z,100329.05
2019-03-13T04:18:36.920Z,100327.09
2019-03-13T04:21:04.840Z,100330.08
2019-03-13T04:23:33.082Z,100317.55
2019-03-13T04:26:01.096Z,100327.81
2019-03-13T04:28:30.038Z,100319.58
2019-03-13T04:30:58.524Z,100324.16
2019-03-13T04:33:28.193Z,100322.11
2019-03-13T04:35:58.208Z,100331.97
2019-03-13T04:38:26.238Z,100314.19
2019-03-13T04:40:55.255Z,100324.25
2019-03-13T04:43:23.379Z,100314.68
2019-03-13T04:45:51.326Z,100309.72
2019-03-13T04:48:19.181Z,100319.23
2019-03-13T04:50:47.263Z,100331.90
2019-03-13T04:53:15.199Z,100325.47
2019-03-13T04:55:43.171Z,100319.42
2019-03-13T04:58:11.220Z,100325.66
2019-03-13T05:00:39.452Z,100316.53
2019-03-13T05:03:08.364Z,100319.63
2019-03-13T05:05:48.970Z,100319.23
2019-03-13T05:08:52.106Z,100315.02
2019-03-13T05:11:20.915Z,100313.78
2019-03-13T05:13:49.196Z,100316.52
2019-03-13T05:16:17.616Z,100326.34
2019-03-13T05:18:45.438Z,100321.58
2019-03-13T05:21:13.805Z,100321.77
2019-03-13T05:23:41.846Z,100327.89
2019-03-13T05:26:09.823Z,100331.00
2019-03-13T05:28:37.760Z,100318.44
2019-03-13T05:31:05.795Z,100315.45
2019-03-13T05:33:33.827Z,100333.83
2019-03-13T05:36:02.033Z,100328.37
2019-03-13T05:38:30.105Z,100332.13
2019-03-13T05:40:57.906Z,100325.13
2019-03-13T05:43:26.045Z,100329.42
2019-03-13T05:45:54.148Z,100331.05
2019-03-13T05:48:22.330Z,100328.23
2019-03-13T05:50:52.154Z,100327.41
2019-03-13T05:53:20.686Z,100324.66
2019-03-13T05:55:48.557Z,100314.94
2019-03-13T05:58:16.543Z,100340.25
2019-03-13T06:00:44.938Z,100318.52
2019-03-13T06:03:12.886Z,100322.20
2019-03-13T06:05:40.971Z,100313.68
2019-03-13T06:08:08.960Z,100333.78
2019-03-13T06:10:37.019Z,100332.16
2019-03-13T06:13:05.167Z,100316.31
2019-03-13T06:15:32.981Z,100314.09
2019-03-13T06:18:00.956Z,100293.38
2019-03-13T06:20:29.043Z,100320.50
2019-03-13T06:22:57.364Z,100309.45
2019-03-13T06:25:25.192Z,100315.88
2019-03-13T06:27:53.133Z,100313.53
2019-03-13T06:30:22.381Z,100309.16
2019-03-13T06:32:50.373Z,100305.30
2019-03-13T06:35:18.615Z,100309.45
2019-03-13T06:37:46.598Z,100302.80
2019-03-13T06:40:14.483Z,100304.76
2019-03-13T06:42:43.429Z,100309.79
2019-03-13T06:45:11.899Z,100308.41
2019-03-13T06:47:39.901Z,100313.68
2019-03-13T06:50:12.494Z,100308.41
2019-03-13T06:52:40.555Z,100308.16
2019-03-13T06:55:09.365Z,100304.51
2019-03-13T06:57:37.421Z,100309.88
2019-03-13T07:00:35.909Z,100310.85
2019-03-13T07:03:15.235Z,100300.65
2019-03-13T07:06:01.729Z,100308.48
2019-03-13T07:08:46.120Z,100302.45
2019-03-13T07:11:33.809Z,100305.13
2019-03-13T07:14:23.519Z,100309.20
2019-03-13T07:17:06.190Z,100291.91
2019-03-13T07:20:02.835Z,100287.13
2019-03-13T07:22:49.850Z,100289.95
2019-03-13T07:25:30.199Z,100278.20
2019-03-13T07:28:20.748Z,100294.66
2019-03-13T07:30:58.295Z,100282.27
2019-03-13T07:33:45.150Z,100289.45
2019-03-13T07:36:35.516Z,100295.73
2019-03-13T07:39:34.607Z,100286.53
2019-03-13T07:42:18.413Z,100288.25
2019-03-13T07:45:08.718Z,100295.73
2019-03-13T07:48:02.290Z,100304.20
2019-03-13T07:50:45.420Z,100298.45
2019-03-13T07:53:28.611Z,100306.60
2019-03-13T07:56:17.466Z,100310.85
2019-03-13T07:58:55.996Z,100324.04
2019-03-13T08:01:55.723Z,100314.87
2019-03-13T08:04:43.632Z,100324.30
2019-03-13T08:07:20.812Z,100319.81
2019-03-13T08:10:10.914Z,100315.66
2019-03-13T08:13:07.324Z,100309.34
2019-03-13T08:15:54.323Z,100311.41
2019-03-13T08:18:48.062Z,100318.34
2019-03-13T08:21:38.145Z,100326.89
2019-03-13T08:24:24.208Z,100314.11
2019-03-13T08:27:10.714Z,100327.46
2019-03-13T08:29:52.933Z,100321.66
2019-03-13T08:32:40.369Z,100317.13
2019-03-13T08:35:28.066Z,100324.24
2019-03-13T08:38:12.755Z,100318.81
2019-03-13T08:40:58.934Z,100315.93
2019-03-13T08:43:46.845Z,100322.30
2019-03-13T08:46:26.430Z,100312.71
2019-03-13T08:49:07.294Z,100308.15
2019-03-13T08:51:48.322Z,100323.04
2019-03-13T08:54:28.073Z,100321.83
2019-03-13T08:57:15.837Z,100318.69
2019-03-13T08:59:55.387Z,100333.94
2019-03-13T09:02:40.343Z,100330.73
2019-03-13T09:05:17.624Z,100325.45
2019-03-13T09:08:04.478Z,100324.02
2019-03-13T09:11:07.006Z,100319.41
2019-03-13T09:13:55.476Z,100317.90
2019-03-13T09:16:33.299Z,100319.52
2019-03-13T09:19:36.112Z,100313.02
2019-03-13T09:22:35.616Z,100307.98
2019-03-13T09:25:22.416Z,100307.06
2019-03-13T09:28:02.956Z,100308.41
2019-03-13T09:30:51.245Z,100301.58
2019-03-13T09:33:39.169Z,100320.47
2019-03-13T09:36:28.771Z,100304.86
2019-03-13T09:39:08.482Z,100295.66
2019-03-13T09:41:54.780Z,100293.72
2019-03-13T09:44:35.908Z,100297.20
2019-03-13T09:47:17.917Z,100282.60
2019-03-13T09:49:55.212Z,100285.33
2019-03-13T09:52:44.489Z,100266.04
2019-03-13T09:55:41.502Z,100270.41
2019-03-13T09:58:23.961Z,100268.33
2019-03-13T10:01:30.843Z,100265.33
2019-03-13T10:04:17.464Z,100248.17
2019-03-13T10:06:55.710Z,100261.55
2019-03-13T10:09:43.267Z,100258.98
2019-03-13T10:12:39.946Z,100271.60
2019-03-13T10:15:17.203Z,100258.04
2019-03-13T10:17:51.815Z,100253.07
2019-03-13T10:20:28.221Z,100269.35
2019-03-13T10:23:25.050Z,100271.73
2019-03-13T10:26:00.483Z,100266.04
2019-03-13T10:28:41.635Z,100274.39
2019-03-13T10:31:28.264Z,100278.61
2019-03-13T10:34:09.003Z,100292.55
2019-03-13T10:36:54.429Z,100290.81
2019-03-13T10:39:39.243Z,100296.53
2019-03-13T10:42:13.559Z,100281.27
2019-03-13T10:45:19.269Z,100288.73
2019-03-13T10:48:05.472Z,100289.62
2019-03-13T10:50:51.624Z,100276.95
2019-03-13T10:53:38.074Z,100270.48
2019-03-13T10:56:25.485Z,100280.08
2019-03-13T10:59:04.188Z,100281.33
2019-03-13T11:01:55.289Z,100302.38
2019-03-13T11:04:45.754Z,100295.39
2019-03-13T11:07:32.482Z,100279.03
2019-03-13T11:10:25.374Z,100291.58
2019-03-13T11:13:14.205Z,100300.27
2019-03-13T11:15:54.131Z,100292.06
2019-03-13T11:18:44.633Z,100302.15
2019-03-13T11:21:24.886Z,100309.38
2019-03-13T11:24:10.615Z,100296.02
2019-03-13T11:27:04.322Z,100303.79
2019-03-13T11:30:01.114Z,100303.31
2019-03-13T11:32:48.549Z,100290.22
2019-03-13T11:35:23.201Z,100322.28
2019-03-13T11:38:01.591Z,100321.45
2019-03-13T11:40:49.619Z,100315.86
2019-03-13T11:43:30.537Z,100326.48
2019-03-13T11:46:24.128Z,100292.42
2019-03-13T11:49:11.193Z,100328.56
2019-03-13T11:51:49.760Z,100320.70
2019-03-13T11:54:37.300Z,100320.01
2019-03-13T11:57:24.753Z,100337.72
2019-03-13T12:00:05.858Z,100327.55
2019-03-13T12:02:53.682Z,100320.91
2019-03-13T12:05:38.995Z,100307.52
2019-03-13T12:08:33.863Z,100321.30
2019-03-13T12:11:39.416Z,100318.35
2019-03-13T12:14:30.068Z,100325.56
2019-03-13T12:17:26.517Z,100321.38
2019-03-13T12:20:09.652Z,100322.92
2019-03-13T12:22:57.487Z,100310.80
2019-03-13T12:25:49.072Z,100311.80
2019-03-13T12:28:30.763Z,100320.56
2019-03-13T12:31:30.671Z,100316.97
2019-03-13T12:34:18.445Z,100306.90
2019-03-13T12:37:06.096Z,100301.27
2019-03-13T12:39:55.627Z,100295.55
2019-03-13T12:42:42.053Z,100290.95
2019-03-13T12:45:35.122Z,100286.52
2019-03-13T12:48:34.434Z,100295.07
2019-03-13T12:51:19.350Z,100286.58
2019-03-13T12:54:12.561Z,100295.17
2019-03-13T12:57:12.375Z,100301.78
2019-03-13T13:00:15.253Z,100299.20
2019-03-13T13:03:09.885Z,100321.37
2019-03-13T13:05:59.029Z,100337.00
2019-03-13T13:08:45.176Z,100345.83
2019-03-13T13:11:26.928Z,100323.84
2019-03-13T13:14:14.437Z,100316.78
2019-03-13T13:17:17.135Z,100310.80
2019-03-13T13:19:45.326Z,100360.65
2019-03-13T13:22:13.993Z,100401.80
2019-03-13T13:24:43.542Z,100345.69
2019-03-13T13:27:11.955Z,100340.28
2019-03-13T13:29:40.251Z,100347.49
2019-03-13T13:32:08.521Z,100368.09
2019-03-13T13:34:36.891Z,100360.38
2019-03-13T13:37:05.995Z,100365.35
2019-03-13T13:39:37.239Z,100384.28
2019-03-13T13:42:05.415Z,100365.31
2019-03-13T13:44:33.450Z,100378.34
2019-03-13T13:47:01.537Z,100370.95
2019-03-13T13:49:29.524Z,100350.52
2019-03-13T13:51:59.974Z,100354.40
2019-03-13T13:54:30.017Z,100340.49
2019-03-13T13:56:58.514Z,100350.47
2019-03-13T13:59:26.681Z,100359.13
2019-03-13T14:01:55.023Z,100386.03
2019-03-13T14:04:22.845Z,100432.27
2019-03-13T14:06:51.118Z,100447.64
2019-03-13T14:09:19.538Z,100438.42
2019-03-13T14:11:47.465Z,100419.73
2019-03-13T14:14:15.397Z,100420.97
2019-03-13T14:16:44.157Z,100411.48
2019-03-13T14:19:12.754Z,100410.98
2019-03-13T14:21:40.714Z,100430.67
2019-03-13T14:24:08.778Z,100430.03
2019-03-13T14:26:37.045Z,100443.82
2019-03-13T14:29:05.009Z,100441.98
2019-03-13T14:31:33.897Z,100444.30
2019-03-13T14:34:01.925Z,100435.15
2019-03-13T14:36:30.110Z,100439.91
2019-03-13T14:38:58.063Z,100433.59
2019-03-13T14:41:28.113Z,100440.54
2019-03-13T14:43:57.073Z,100430.93
2019-03-13T14:46:25.863Z,100443.39
2019-03-13T14:48:53.909Z,100437.16
2019-03-13T14:51:22.197Z,100448.66
2019-03-13T14:53:50.425Z,100452.92
2019-03-13T14:56:18.350Z,100461.45
2019-03-13T14:58:46.367Z,100454.34
2019-03-13T15:01:15.459Z,100460.51
2019-03-13T15:03:43.558Z,100457.16
2019-03-13T15:06:11.584Z,100459.62
2019-03-13T15:08:39.468Z,100475.23
2019-03-13T15:11:09.319Z,100468.61
2019-03-13T15:13:37.271Z,100471.08
2019-03-13T15:16:06.367Z,100466.61
2019-03-13T15:18:36.255Z,100478.77
2019-03-13T15:21:04.775Z,100463.22
2019-03-13T15:23:33.066Z,100467.39
2019-03-13T15:26:00.873Z,100458.03
2019-03-13T15:28:28.911Z,100476.52
2019-03-13T15:30:56.756Z,100473.52
2019-03-13T15:33:27.721Z,100463.47
2019-03-13T15:35:58.244Z,100476.12
2019-03-13T15:38:26.201Z,100477.17
2019-03-13T15:40:54.237Z,100472.17
2019-03-13T15:43:22.088Z,100475.38
2019-03-13T15:45:51.124Z,100482.30
2019-03-13T15:48:19.382Z,100483.98
2019-03-13T15:50:47.422Z,100475.62
2019-03-13T15:53:15.269Z,100484.39
2019-03-13T15:55:43.157Z,100493.80
2019-03-13T15:58:11.567Z,100500.86
2019-03-13T16:00:40.220Z,100505.64
2019-03-13T16:03:09.944Z,100496.09
2019-03-13T16:05:38.486Z,100517.39
2019-03-13T16:08:06.509Z,100517.12
2019-03-13T16:10:34.586Z,100517.41
2019-03-13T16:13:04.115Z,100527.91
2019-03-13T16:15:35.695Z,100519.86
2019-03-13T16:18:05.486Z,100522.13
2019-03-13T16:20:33.705Z,100538.25
2019-03-13T16:23:02.293Z,100542.72
2019-03-13T16:25:31.534Z,100536.50
2019-03-13T16:28:01.612Z,100539.30
2019-03-13T16:30:33.515Z,100552.15
2019-03-13T16:33:01.864Z,100556.13
2019-03-13T16:35:29.721Z,100571.03
2019-03-13T16:37:57.971Z,100571.54
2019-03-13T16:40:27.904Z,100586.41
2019-03-13T16:42:56.154Z,100569.96
2019-03-13T16:45:25.645Z,100590.27
2019-03-13T16:47:55.568Z,100595.08
2019-03-13T16:50:24.033Z,100599.65
2019-03-13T16:52:52.021Z,100601.63
2019-03-13T16:55:20.485Z,100608.79
2019-03-13T16:57:49.905Z,100620.75
2019-03-13T17:00:20.903Z,100609.84
2019-03-13T17:02:50.526Z,100620.84
2019-03-13T17:05:19.175Z,100615.45
2019-03-13T17:07:49.603Z,100630.67
2019-03-13T17:10:19.937Z,100621.89
2019-03-13T17:12:48.234Z,100637.27
2019-03-13T17:15:18.540Z,100638.80
2019-03-13T17:17:46.420Z,100646.39
2019-03-13T17:20:18.296Z,100650.52
2019-03-13T17:22:46.260Z,100648.49
2019-03-13T17:25:16.510Z,100650.80
2019-03-13T17:27:48.446Z,100649.50
2019-03-13T17:30:23.374Z,100667.02
2019-03-13T17:32:52.659Z,100669.70
2019-03-13T17:35:23.085Z,100680.95
2019-03-13T17:37:51.090Z,100686.34
2019-03-13T17:40:22.733Z,100694.38
2019-03-13T17:42:51.488Z,100715.13
2019-03-13T17:45:20.504Z,100726.70
2019-03-13T17:47:49.220Z,100721.05
2019-03-13T17:50:17.681Z,100717.66
2019-03-13T17:52:45.982Z,100723.92
2019-03-13T17:55:14.362Z,100718.26
2019-03-13T17:57:42.417Z,100738.06
2019-03-13T18:00:21.120Z,100742.63
2019-03-13T18:02:49.124Z,100746.17
2019-03-13T18:05:17.400Z,100748.57
2019-03-13T18:07:45.503Z,100741.86
2019-03-13T18:10:15.876Z,100751.54
2019-03-13T18:12:44.918Z,100758.61
2019-03-13T18:15:13.857Z,100764.00
2019-03-13T18:17:41.863Z,100764.62
2019-03-13T18:20:15.627Z,100765.93
2019-03-13T18:22:44.909Z,100765.19
2019-03-13T18:25:13.543Z,100777.86
2019-03-13T18:27:41.983Z,100781.83
2019-03-13T18:30:16.022Z,100792.56
2019-03-13T18:32:43.899Z,100794.77
2019-03-13T18:35:12.748Z,100807.16
2019-03-13T18:37:40.801Z,100812.84
2019-03-13T18:40:09.236Z,100814.33
2019-03-13T18:42:37.020Z,100836.96
2019-03-13T18:45:08.245Z,100832.52
2019-03-13T18:47:36.046Z,100824.98
2019-03-13T18:50:07.254Z,100821.63
2019-03-13T18:52:36.897Z,100836.13
2019-03-13T18:55:06.055Z,100841.96
2019-03-13T18:57:34.117Z,100841.47
2019-03-13T19:00:03.279Z,100844.08
2019-03-13T19:02:31.223Z,100847.44
2019-03-13T19:05:01.925Z,100855.36
2019-03-13T19:07:30.322Z,100860.69
2019-03-13T19:09:58.269Z,100865.98
2019-03-13T19:12:26.713Z,100868.13
2019-03-13T19:14:54.895Z,100864.98
2019-03-13T19:17:22.912Z,100869.12
2019-03-13T19:19:50.761Z,100881.33
2019-03-13T19:22:18.769Z,100880.82
2019-03-13T19:24:48.611Z,100891.52
2019-03-13T19:27:16.476Z,100892.20
2019-03-13T19:29:44.408Z,100892.08
2019-03-13T19:32:14.022Z,100895.73
2019-03-13T19:34:41.893Z,100901.28
2019-03-13T19:37:09.864Z,100899.77
2019-03-13T19:39:37.802Z,100902.99
2019-03-13T19:42:05.710Z,100915.81
2019-03-13T19:44:33.546Z,100920.43
2019-03-13T19:47:03.184Z,100910.05
2019-03-13T19:49:31.264Z,100937.31
2019-03-13T19:52:00.908Z,100938.58
2019-03-13T19:54:28.709Z,100937.84
2019-03-13T19:56:56.737Z,100943.49
2019-03-13T19:59:26.375Z,100942.10
2019-03-13T20:01:54.415Z,100940.98
2019-03-13T20:04:22.245Z,100949.88
2019-03-13T20:06:52.024Z,100957.07
2019-03-13T20:09:19.994Z,100952.39
2019-03-13T20:11:51.242Z,100961.48
2019-03-13T20:14:19.191Z,100961.78
2019-03-13T20:16:47.019Z,100978.81
2019-03-13T20:19:14.836Z,100969.83
2019-03-13T20:21:42.902Z,100945.35
2019-03-13T20:24:10.771Z,100954.22
2019-03-13T20:26:38.689Z,100966.79
2019-03-13T20:29:06.644Z,100964.97
2019-03-13T20:31:34.678Z,100977.25
2019-03-13T20:34:02.517Z,100972.83
2019-03-13T20:36:31.287Z,100986.97
2019-03-13T20:38:59.120Z,100993.13
2019-03-13T20:41:27.033Z,100989.04
2019-03-13T20:43:54.970Z,100991.98
2019-03-13T20:46:25.642Z,100986.42
2019-03-13T20:48:53.791Z,100994.84
2019-03-13T20:51:21.721Z,100995.91
2019-03-13T20:53:49.735Z,101025.14
2019-03-13T20:56:17.580Z,101022.22
2019-03-13T20:58:46.481Z,101034.17
2019-03-13T21:01:14.480Z,101030.89
2019-03-13T21:03:42.294Z,101023.75
2019-03-13T21:06:10.114Z,101024.68
2019-03-13T21:08:38.431Z,101025.92
2019-03-13T21:11:06.754Z,101015.42
2019-03-13T21:13:34.577Z,101017.91
2019-03-13T21:16:02.498Z,101018.62
2019-03-13T21:18:30.312Z,101022.52
2019-03-13T21:20:58.206Z,101032.66
2019-03-13T21:23:26.134Z,101027.94
2019-03-13T21:25:54.103Z,101030.84
2019-03-13T21:28:22.072Z,101033.39
2019-03-13T21:30:49.884Z,101023.58
2019-03-13T21:33:17.900Z,101040.06
2019-03-13T21:35:45.783Z,101039.45
2019-03-13T21:38:13.591Z,101036.27
2019-03-13T21:40:41.541Z,101038.18
2019-03-13T21:43:09.351Z,101047.23
2019-03-13T21:45:41.360Z,101046.60
2019-03-13T21:48:07.077Z,101040.47
2019-03-13T21:50:35.082Z,101049.64
2019-03-13T21:53:03.445Z,101050.06
2019-03-13T21:55:31.327Z,101059.16
2019-03-13T21:58:05.408Z,101066.65
2019-03-13T22:00:33.654Z,101061.33
2019-03-13T22:03:01.538Z,101071.02
2019-03-13T22:05:29.615Z,101074.02
2019-03-13T22:07:57.430Z,101073.55
2019-03-13T22:10:25.924Z,101063.63
2019-03-13T22:12:53.873Z,101077.54
2019-03-13T22:15:22.143Z,101076.09
2019-03-13T22:17:50.147Z,101077.34
2019-03-13T22:20:19.656Z,101072.56
2019-03-13T22:22:47.958Z,101067.70
2019-03-13T22:25:16.427Z,101071.33
2019-03-13T22:27:46.726Z,101079.59
2019-03-13T22:30:19.886Z,101085.35
2019-03-13T22:32:47.932Z,101083.27
2019-03-13T22:35:16.265Z,101081.02
2019-03-13T22:37:44.270Z,101080.48
2019-03-13T22:40:14.106Z,101083.63
2019-03-13T22:42:43.434Z,101092.67
2019-03-13T22:45:13.142Z,101084.23
2019-03-13T22:47:43.471Z,101095.44
2019-03-13T22:50:14.651Z,101090.95
2019-03-13T22:52:42.651Z,101088.48
2019-03-13T22:55:13.157Z,101085.81
2019-03-13T22:57:41.022Z,101086.27
2019-03-13T23:00:31.195Z,101087.18
2019-03-13T23:02:59.644Z,101090.48
2019-03-13T23:05:27.822Z,101096.14
2019-03-13T23:07:57.651Z,101098.55
2019-03-13T23:10:30.356Z,101107.67
2019-03-13T23:12:58.469Z,101110.67
2019-03-13T23:15:26.775Z,101106.83
2019-03-13T23:17:56.574Z,101107.95
2019-03-13T23:20:24.536Z,101114.96
2019-03-13T23:22:52.353Z,101123.01
2019-03-13T23:25:20.290Z,101118.03
2019-03-13T23:27:50.516Z,101122.19
2019-03-13T23:30:18.984Z,101117.27
2019-03-13T23:32:47.237Z,101122.69
2019-03-13T23:35:15.712Z,101108.39
2019-03-13T23:37:44.237Z,101120.25
2019-03-13T23:40:12.433Z,101119.36
2019-03-13T23:42:40.447Z,101121.45
2019-03-13T23:45:08.787Z,101129.08
2019-03-13T23:47:36.813Z,101131.07
2019-03-13T23:50:05.515Z,101127.31
2019-03-13T23:52:34.657Z,101127.17
2019-03-13T23:55:03.686Z,101123.23
2019-03-13T23:57:31.814Z,101119.15
